createdAt,value
2023-04-09T00:01:16.394Z,2.42
2023-04-09T00:03:44.247Z,2.37
2023-04-09T00:06:13.041Z,2.31
2023-04-09T00:08:41.304Z,2.27
2023-04-09T00:11:09.683Z,2.24
2023-04-09T00:13:39.698Z,2.26
2023-04-09T00:16:08.919Z,2.26
2023-04-09T00:18:36.969Z,2.25
2023-04-09T00:21:05.061Z,2.20
2023-04-09T00:23:36.700Z,2.19
2023-04-09T00:26:05.095Z,2.19
2023-04-09T00:28:33.004Z,2.23
2023-04-09T00:31:00.758Z,2.27
2023-04-09T00:33:28.553Z,2.31
2023-04-09T00:35:56.339Z,2.34
2023-04-09T00:38:24.645Z,2.38
2023-04-09T00:40:52.939Z,2.37
2023-04-09T00:43:20.790Z,2.35
2023-04-09T00:45:49.075Z,2.35
2023-04-09T00:48:17.675Z,2.38
2023-04-09T00:50:45.494Z,2.40
2023-04-09T00:53:17.950Z,2.42
2023-04-09T00:55:46.379Z,2.42
2023-04-09T00:58:14.706Z,2.42
2023-04-09T01:00:42.736Z,2.44
2023-04-09T01:03:10.734Z,2.45
2023-04-09T01:05:49.635Z,2.45
2023-04-09T01:08:53.499Z,2.44
2023-04-09T01:11:52.744Z,2.47
2023-04-09T01:14:42.151Z,2.51
2023-04-09T01:17:17.387Z,2.54
2023-04-09T01:20:02.370Z,2.55
2023-04-09T01:23:05.471Z,2.56
2023-04-09T01:26:13.747Z,2.55
2023-04-09T01:28:46.635Z,2.56
2023-04-09T01:31:18.664Z,2.57
2023-04-09T01:33:47.740Z,2.59
2023-04-09T01:36:16.624Z,2.62
2023-04-09T01:38:48.786Z,2.65
2023-04-09T01:41:21.633Z,2.68
2023-04-09T01:43:51.691Z,2.73
2023-04-09T01:46:22.152Z,2.74
2023-04-09T01:48:51.359Z,2.76
2023-04-09T01:51:19.704Z,2.75
2023-04-09T01:53:49.507Z,2.71
2023-04-09T01:56:17.777Z,2.71
2023-04-09T01:58:46.004Z,2.74
2023-04-09T02:01:24.399Z,2.77
2023-04-09T02:04:01.024Z,2.77
2023-04-09T02:06:39.555Z,2.77
2023-04-09T02:09:09.865Z,2.77
2023-04-09T02:11:42.462Z,2.74
2023-04-09T02:14:12.537Z,2.72
2023-04-09T02:16:40.805Z,2.66
2023-04-09T02:19:08.573Z,2.63
2023-04-09T02:21:36.567Z,2.64
2023-04-09T02:24:04.397Z,2.66
2023-04-09T02:26:32.322Z,2.68
2023-04-09T02:29:00.127Z,2.66
2023-04-09T02:31:27.886Z,2.66
2023-04-09T02:33:55.724Z,2.66
2023-04-09T02:36:23.646Z,2.66
2023-04-09T02:38:51.683Z,2.65
2023-04-09T02:41:19.659Z,2.65
2023-04-09T02:43:47.488Z,2.66
2023-04-09T02:46:15.449Z,2.67
2023-04-09T02:48:43.192Z,2.70
2023-04-09T02:51:11.014Z,2.73
2023-04-09T02:53:40.842Z,2.72
2023-04-09T02:56:08.687Z,2.69
2023-04-09T02:58:36.498Z,2.68
2023-04-09T03:01:04.920Z,2.69
2023-04-09T03:03:33.365Z,2.71
2023-04-09T03:06:01.209Z,2.73
2023-04-09T03:08:28.909Z,2.76
2023-04-09T03:10:56.723Z,2.80
2023-04-09T03:13:28.478Z,2.83
2023-04-09T03:15:56.660Z,2.87
2023-04-09T03:18:24.406Z,2.89
2023-04-09T03:20:52.234Z,2.90
2023-04-09T03:23:20.320Z,2.90
2023-04-09T03:25:48.174Z,2.91
2023-04-09T03:28:16.026Z,2.95
2023-04-09T03:30:44.178Z,2.97
2023-04-09T03:33:11.878Z,3.02
2023-04-09T03:35:39.782Z,3.06
2023-04-09T03:38:07.709Z,3.10
2023-04-09T03:40:36.633Z,3.11
2023-04-09T03:43:04.569Z,3.11
2023-04-09T03:45:32.726Z,3.12
2023-04-09T03:48:00.798Z,3.15
2023-04-09T03:50:28.832Z,3.19
2023-04-09T03:52:56.691Z,3.24
2023-04-09T03:55:24.416Z,3.29
2023-04-09T03:57:52.675Z,3.33
2023-04-09T04:00:20.815Z,3.33
2023-04-09T04:02:48.692Z,3.35
2023-04-09T04:05:16.792Z,3.38
2023-04-09T04:07:45.131Z,3.41
2023-04-09T04:10:12.994Z,3.45
2023-04-09T04:12:40.929Z,3.49
2023-04-09T04:15:09.837Z,3.51
2023-04-09T04:17:37.796Z,3.52
2023-04-09T04:20:06.357Z,3.55
2023-04-09T04:22:35.399Z,3.58
2023-04-09T04:25:04.711Z,3.63
2023-04-09T04:27:32.639Z,3.69
2023-04-09T04:30:02.256Z,3.74
2023-04-09T04:32:30.592Z,3.79
2023-04-09T04:34:58.371Z,3.84
2023-04-09T04:37:26.219Z,3.87
2023-04-09T04:39:54.216Z,3.91
2023-04-09T04:42:23.226Z,3.97
2023-04-09T04:44:51.253Z,4.01
2023-04-09T04:47:19.593Z,4.06
2023-04-09T04:49:47.638Z,4.13
2023-04-09T04:52:17.668Z,4.18
2023-04-09T04:54:45.715Z,4.25
2023-04-09T04:57:14.003Z,4.30
2023-04-09T04:59:41.990Z,4.31
2023-04-09T05:02:10.333Z,4.34
2023-04-09T05:04:38.543Z,4.41
2023-04-09T05:07:06.373Z,4.49
2023-04-09T05:09:34.967Z,4.56
2023-04-09T05:12:03.150Z,4.63
2023-04-09T05:14:31.663Z,4.68
2023-04-09T05:16:59.685Z,4.72
2023-04-09T05:19:27.455Z,4.79
2023-04-09T05:21:55.175Z,4.85
2023-04-09T05:24:22.865Z,4.92
2023-04-09T05:26:51.328Z,5.01
2023-04-09T05:29:19.069Z,5.13
2023-04-09T05:31:46.856Z,5.24
2023-04-09T05:34:14.707Z,5.35
2023-04-09T05:36:42.540Z,5.45
2023-04-09T05:39:11.106Z,5.50
2023-04-09T05:41:39.169Z,5.57
2023-04-09T05:44:06.932Z,5.63
2023-04-09T05:46:34.723Z,5.70
2023-04-09T05:49:02.638Z,5.75
2023-04-09T05:51:30.459Z,5.81
2023-04-09T05:53:59.489Z,5.87
2023-04-09T05:56:28.231Z,5.92
2023-04-09T05:58:56.148Z,5.93
2023-04-09T06:01:24.112Z,5.96
2023-04-09T06:03:54.062Z,5.97
2023-04-09T06:06:24.866Z,5.98
2023-04-09T06:08:52.887Z,6.02
2023-04-09T06:11:21.860Z,6.02
2023-04-09T06:13:50.347Z,6.02
2023-04-09T06:16:18.985Z,6.02
2023-04-09T06:18:49.776Z,6.02
2023-04-09T06:21:17.548Z,6.05
2023-04-09T06:23:45.331Z,6.06
2023-04-09T06:26:13.080Z,6.09
2023-04-09T06:28:41.448Z,6.12
2023-04-09T06:31:09.916Z,6.20
2023-04-09T06:33:37.630Z,6.27
2023-04-09T06:36:05.625Z,6.30
2023-04-09T06:38:33.526Z,6.38
2023-04-09T06:41:01.242Z,6.46
2023-04-09T06:43:29.554Z,6.55
2023-04-09T06:45:57.977Z,6.64
2023-04-09T06:48:25.807Z,6.73
2023-04-09T06:50:53.629Z,6.85
2023-04-09T06:53:21.528Z,6.95
2023-04-09T06:55:50.105Z,7.06
2023-04-09T06:58:18.280Z,7.19
2023-04-09T07:00:46.000Z,7.31
2023-04-09T07:03:14.896Z,7.42
2023-04-09T07:05:43.193Z,7.49
2023-04-09T07:08:11.857Z,7.52
2023-04-09T07:10:40.197Z,7.56
2023-04-09T07:13:07.993Z,7.59
2023-04-09T07:15:44.992Z,7.61
2023-04-09T07:18:16.240Z,7.65
2023-04-09T07:20:44.421Z,7.71
2023-04-09T07:23:12.793Z,7.78
2023-04-09T07:25:40.898Z,7.84
2023-04-09T07:28:08.670Z,7.92
2023-04-09T07:30:36.415Z,8.01
2023-04-09T07:33:06.947Z,8.11
2023-04-09T07:35:35.476Z,8.22
2023-04-09T07:38:03.814Z,8.26
2023-04-09T07:40:34.746Z,8.28
2023-04-09T07:43:04.555Z,8.32
2023-04-09T07:45:32.357Z,8.33
2023-04-09T07:48:00.979Z,8.31
2023-04-09T07:50:30.438Z,8.31
2023-04-09T07:52:58.731Z,8.29
2023-04-09T07:55:26.550Z,8.30
2023-04-09T07:57:54.818Z,8.36
2023-04-09T08:00:22.908Z,8.48
2023-04-09T08:02:51.148Z,8.61
2023-04-09T08:05:21.987Z,8.75
2023-04-09T08:07:53.687Z,8.88
2023-04-09T08:10:21.518Z,8.96
2023-04-09T08:12:50.380Z,9.01
2023-04-09T08:15:18.170Z,8.97
2023-04-09T08:17:45.950Z,8.93
2023-04-09T08:20:14.429Z,8.87
2023-04-09T08:22:42.867Z,8.84
2023-04-09T08:25:10.942Z,8.85
2023-04-09T08:27:39.810Z,8.92
2023-04-09T08:30:08.650Z,9.03
2023-04-09T08:32:37.029Z,9.13
2023-04-09T08:35:06.432Z,9.20
2023-04-09T08:37:35.411Z,9.35
2023-04-09T08:40:03.676Z,9.39
2023-04-09T08:42:34.160Z,9.36
2023-04-09T08:45:04.910Z,9.38
2023-04-09T08:47:35.320Z,9.47
2023-04-09T08:50:04.478Z,9.56
2023-04-09T08:52:34.226Z,9.58
2023-04-09T08:55:02.263Z,9.56
2023-04-09T08:57:30.146Z,9.59
2023-04-09T08:59:59.031Z,9.63
2023-04-09T09:02:27.464Z,9.68
2023-04-09T09:05:00.912Z,9.69
2023-04-09T09:07:32.100Z,9.73
2023-04-09T09:10:03.802Z,9.82
2023-04-09T09:12:40.601Z,9.87
2023-04-09T09:15:29.667Z,9.90
2023-04-09T09:18:00.130Z,9.95
2023-04-09T09:20:28.033Z,10.00
2023-04-09T09:22:57.192Z,10.04
2023-04-09T09:25:26.776Z,10.07
2023-04-09T09:27:54.872Z,10.10
2023-04-09T09:30:27.600Z,10.16
2023-04-09T09:33:10.718Z,10.22
2023-04-09T09:35:54.183Z,10.24
2023-04-09T09:38:22.176Z,10.28
2023-04-09T09:40:50.407Z,10.34
2023-04-09T09:43:18.818Z,10.38
2023-04-09T09:45:48.301Z,10.37
2023-04-09T09:48:16.534Z,10.36
2023-04-09T09:50:47.731Z,10.35
2023-04-09T09:53:23.166Z,10.43
2023-04-09T09:55:57.350Z,10.54
2023-04-09T09:58:32.089Z,10.63
2023-04-09T10:01:01.455Z,10.66
2023-04-09T10:03:32.240Z,10.70
2023-04-09T10:06:03.121Z,10.76
2023-04-09T10:08:34.181Z,10.83
2023-04-09T10:11:02.750Z,10.93
2023-04-09T10:13:45.430Z,11.03
2023-04-09T10:16:14.380Z,11.12
2023-04-09T10:18:43.751Z,11.21
2023-04-09T10:21:24.775Z,11.28
2023-04-09T10:23:53.785Z,11.37
2023-04-09T10:26:22.295Z,11.45
2023-04-09T10:29:08.862Z,11.50
2023-04-09T10:31:50.039Z,11.61
2023-04-09T10:34:20.532Z,11.71
2023-04-09T10:36:55.364Z,11.76
2023-04-09T10:39:28.625Z,11.80
2023-04-09T10:41:58.506Z,11.84
2023-04-09T10:44:27.845Z,11.94
2023-04-09T10:46:56.253Z,11.96
2023-04-09T10:49:27.079Z,11.98
2023-04-09T10:52:02.421Z,12.07
2023-04-09T10:54:33.927Z,12.16
2023-04-09T10:57:07.929Z,12.28
2023-04-09T10:59:39.153Z,12.44
2023-04-09T11:02:18.643Z,12.56
2023-04-09T11:05:06.435Z,12.69
2023-04-09T11:07:40.658Z,12.80
2023-04-09T11:10:09.096Z,12.91
2023-04-09T11:12:36.899Z,13.04
2023-04-09T11:15:05.836Z,13.19
2023-04-09T11:17:37.040Z,13.35
2023-04-09T11:20:06.052Z,13.50
2023-04-09T11:22:34.357Z,13.58
2023-04-09T11:25:03.140Z,13.59
2023-04-09T11:27:30.884Z,13.58
2023-04-09T11:30:01.769Z,13.52
2023-04-09T11:32:31.440Z,13.41
2023-04-09T11:34:59.839Z,13.21
2023-04-09T11:37:28.286Z,13.07
2023-04-09T11:39:57.973Z,12.97
2023-04-09T11:42:25.922Z,12.89
2023-04-09T11:44:54.260Z,12.82
2023-04-09T11:47:22.299Z,12.73
2023-04-09T11:49:50.708Z,12.62
2023-04-09T11:52:19.357Z,12.54
2023-04-09T11:54:50.417Z,12.47
2023-04-09T11:57:18.091Z,12.40
2023-04-09T11:59:46.371Z,12.31
2023-04-09T12:02:19.476Z,12.18
2023-04-09T12:04:51.233Z,12.07
2023-04-09T12:07:19.091Z,11.97
2023-04-09T12:09:48.775Z,11.88
2023-04-09T12:12:21.491Z,11.78
2023-04-09T12:14:51.996Z,11.69
2023-04-09T12:17:21.305Z,11.63
2023-04-09T12:19:49.356Z,11.55
2023-04-09T12:22:17.175Z,11.49
2023-04-09T12:24:45.044Z,11.45
2023-04-09T12:27:13.920Z,11.40
2023-04-09T12:29:41.679Z,11.36
2023-04-09T12:32:09.451Z,11.33
2023-04-09T12:34:37.549Z,11.31
2023-04-09T12:37:05.626Z,11.29
2023-04-09T12:39:34.407Z,11.29
2023-04-09T12:42:02.471Z,11.30
2023-04-09T12:44:33.210Z,11.34
2023-04-09T12:47:01.275Z,11.37
2023-04-09T12:49:29.577Z,11.39
2023-04-09T12:51:57.347Z,11.45
2023-04-09T12:54:25.168Z,11.51
2023-04-09T12:56:53.128Z,11.55
2023-04-09T12:59:21.337Z,11.58
2023-04-09T13:01:49.193Z,11.64
2023-04-09T13:04:17.369Z,11.68
2023-04-09T13:06:45.720Z,11.71
2023-04-09T13:09:13.434Z,11.75
2023-04-09T13:11:41.303Z,11.76
2023-04-09T13:14:13.554Z,11.79
2023-04-09T13:16:41.966Z,11.81
2023-04-09T13:19:10.382Z,11.86
2023-04-09T13:21:38.084Z,11.88
2023-04-09T13:24:06.922Z,11.93
2023-04-09T13:26:34.633Z,12.01
2023-04-09T13:29:03.527Z,12.07
2023-04-09T13:31:31.372Z,12.11
2023-04-09T13:33:59.267Z,12.15
2023-04-09T13:36:27.829Z,12.17
2023-04-09T13:38:56.444Z,12.19
2023-04-09T13:41:29.777Z,12.20
2023-04-09T13:43:59.887Z,12.21
2023-04-09T13:46:28.377Z,12.21
2023-04-09T13:48:56.145Z,12.20
2023-04-09T13:51:24.237Z,12.19
2023-04-09T13:53:52.825Z,12.20
2023-04-09T13:56:20.896Z,12.20
2023-04-09T13:58:49.110Z,12.20
2023-04-09T14:01:17.746Z,12.22
2023-04-09T14:03:45.691Z,12.27
2023-04-09T14:06:13.723Z,12.33
2023-04-09T14:08:42.290Z,12.39
2023-04-09T14:11:14.123Z,12.43
2023-04-09T14:13:41.869Z,12.42
2023-04-09T14:16:10.018Z,12.43
2023-04-09T14:18:39.436Z,12.42
2023-04-09T14:21:09.982Z,12.37
2023-04-09T14:23:41.501Z,12.33
2023-04-09T14:26:09.819Z,12.28
2023-04-09T14:28:38.066Z,12.24
2023-04-09T14:31:06.418Z,12.21
2023-04-09T14:33:34.228Z,12.18
2023-04-09T14:36:02.521Z,12.15
2023-04-09T14:38:30.307Z,12.12
2023-04-09T14:40:58.376Z,12.08
2023-04-09T14:43:26.320Z,12.05
2023-04-09T14:45:54.786Z,12.02
2023-04-09T14:48:23.100Z,11.99
2023-04-09T14:50:51.805Z,11.97
2023-04-09T14:53:19.562Z,11.94
2023-04-09T14:55:47.764Z,11.91
2023-04-09T14:58:15.523Z,11.88
2023-04-09T15:00:44.993Z,11.85
2023-04-09T15:03:13.396Z,11.82
2023-04-09T15:05:41.525Z,11.79
2023-04-09T15:08:09.328Z,11.75
2023-04-09T15:10:37.880Z,11.73
2023-04-09T15:13:05.970Z,11.66
2023-04-09T15:15:34.060Z,11.59
2023-04-09T15:18:05.914Z,11.51
2023-04-09T15:20:39.232Z,11.44
2023-04-09T15:23:07.134Z,11.40
2023-04-09T15:25:34.973Z,11.33
2023-04-09T15:28:03.591Z,11.26
2023-04-09T15:30:32.192Z,11.23
2023-04-09T15:33:00.615Z,11.20
2023-04-09T15:35:29.467Z,11.15
2023-04-09T15:37:57.743Z,11.11
2023-04-09T15:40:25.556Z,11.09
2023-04-09T15:42:53.314Z,11.05
2023-04-09T15:45:21.461Z,11.03
2023-04-09T15:47:49.268Z,10.99
2023-04-09T15:50:17.076Z,10.98
2023-04-09T15:52:45.286Z,10.95
2023-04-09T15:55:13.016Z,10.94
2023-04-09T15:57:40.868Z,10.89
2023-04-09T16:00:10.693Z,10.83
2023-04-09T16:02:39.112Z,10.81
2023-04-09T16:05:07.752Z,10.78
2023-04-09T16:07:35.951Z,10.76
2023-04-09T16:10:04.964Z,10.75
2023-04-09T16:12:32.851Z,10.72
2023-04-09T16:15:01.638Z,10.70
2023-04-09T16:17:34.523Z,10.66
2023-04-09T16:20:08.623Z,10.62
2023-04-09T16:22:37.083Z,10.59
2023-04-09T16:25:05.373Z,10.52
2023-04-09T16:27:33.773Z,10.49
2023-04-09T16:30:02.018Z,10.45
2023-04-09T16:32:29.894Z,10.42
2023-04-09T16:35:00.907Z,10.39
2023-04-09T16:37:29.423Z,10.36
2023-04-09T16:39:58.187Z,10.31
2023-04-09T16:42:27.640Z,10.26
2023-04-09T16:44:55.696Z,10.19
2023-04-09T16:47:23.536Z,10.13
2023-04-09T16:49:51.836Z,10.07
2023-04-09T16:52:20.042Z,10.00
2023-04-09T16:54:47.759Z,9.93
2023-04-09T16:57:16.679Z,9.85
2023-04-09T16:59:45.208Z,9.77
2023-04-09T17:02:12.959Z,9.70
2023-04-09T17:04:42.395Z,9.62
2023-04-09T17:07:10.637Z,9.54
2023-04-09T17:09:38.345Z,9.45
2023-04-09T17:12:06.405Z,9.37
2023-04-09T17:14:34.557Z,9.30
2023-04-09T17:17:02.728Z,9.22
2023-04-09T17:19:31.513Z,9.15
2023-04-09T17:22:00.234Z,9.08
2023-04-09T17:24:28.118Z,9.02
2023-04-09T17:26:56.790Z,8.97
2023-04-09T17:29:24.484Z,8.93
2023-04-09T17:31:53.310Z,8.87
2023-04-09T17:34:21.949Z,8.83
2023-04-09T17:36:56.405Z,8.79
2023-04-09T17:39:24.514Z,8.74
2023-04-09T17:41:53.664Z,8.70
2023-04-09T17:44:21.776Z,8.65
2023-04-09T17:46:49.625Z,8.60
2023-04-09T17:49:17.916Z,8.55
2023-04-09T17:51:46.264Z,8.50
2023-04-09T17:54:14.911Z,8.44
2023-04-09T17:56:42.748Z,8.38
2023-04-09T17:59:10.630Z,8.33
2023-04-09T18:01:38.452Z,8.27
2023-04-09T18:04:06.982Z,8.21
2023-04-09T18:06:35.360Z,8.16
2023-04-09T18:09:03.324Z,8.11
2023-04-09T18:11:31.353Z,8.06
2023-04-09T18:13:59.140Z,8.00
2023-04-09T18:16:28.432Z,7.94
2023-04-09T18:18:56.882Z,7.88
2023-04-09T18:21:25.106Z,7.83
2023-04-09T18:23:52.954Z,7.76
2023-04-09T18:26:20.780Z,7.67
2023-04-09T18:28:48.515Z,7.60
2023-04-09T18:31:16.513Z,7.53
2023-04-09T18:33:44.794Z,7.47
2023-04-09T18:36:13.429Z,7.40
2023-04-09T18:38:41.297Z,7.33
2023-04-09T18:41:11.054Z,7.26
2023-04-09T18:43:38.887Z,7.20
2023-04-09T18:46:06.818Z,7.13
2023-04-09T18:48:35.802Z,7.06
2023-04-09T18:51:04.560Z,7.01
2023-04-09T18:53:32.335Z,6.95
2023-04-09T18:58:46.581Z,6.86
2023-04-09T19:01:14.757Z,6.82
2023-04-09T19:03:43.260Z,6.79
2023-04-09T19:06:19.152Z,6.76
2023-04-09T19:08:48.348Z,6.74
2023-04-09T19:11:16.646Z,6.72
2023-04-09T19:13:44.596Z,6.68
2023-04-09T19:16:12.421Z,6.66
2023-04-09T19:18:40.193Z,6.64
2023-04-09T19:21:08.488Z,6.62
2023-04-09T19:23:36.828Z,6.59
2023-04-09T19:26:05.631Z,6.56
2023-04-09T19:28:33.612Z,6.54
2023-04-09T19:31:03.420Z,6.51
2023-04-09T19:33:31.921Z,6.47
2023-04-09T19:35:59.919Z,6.42
2023-04-09T19:38:28.382Z,6.37
2023-04-09T19:40:56.500Z,6.33
2023-04-09T19:43:24.556Z,6.26
2023-04-09T19:45:52.318Z,6.21
2023-04-09T19:48:20.136Z,6.17
2023-04-09T19:50:49.015Z,6.13
2023-04-09T19:53:18.583Z,6.10
2023-04-09T19:55:46.541Z,6.06
2023-04-09T19:58:14.344Z,6.02
2023-04-09T20:00:42.156Z,5.99
2023-04-09T20:03:10.652Z,5.95
2023-04-09T20:05:38.998Z,5.93
2023-04-09T20:08:12.211Z,5.91
2023-04-09T20:10:45.119Z,5.89
2023-04-09T20:13:13.665Z,5.87
2023-04-09T20:15:41.899Z,5.82
2023-04-09T20:18:10.525Z,5.77
2023-04-09T20:20:38.787Z,5.74
2023-04-09T20:23:06.523Z,5.71
2023-04-09T20:25:36.724Z,5.65
2023-04-09T20:28:04.891Z,5.62
2023-04-09T20:30:32.708Z,5.61
2023-04-09T20:33:01.462Z,5.59
2023-04-09T20:35:29.728Z,5.59
2023-04-09T20:37:57.423Z,5.58
2023-04-09T20:40:25.568Z,5.57
2023-04-09T20:42:53.350Z,5.58
2023-04-09T20:45:21.167Z,5.60
2023-04-09T20:47:53.338Z,5.62
2023-04-09T20:50:22.048Z,5.65
2023-04-09T20:52:49.898Z,5.68
2023-04-09T20:55:18.160Z,5.71
2023-04-09T20:57:45.963Z,5.75
2023-04-09T21:00:14.735Z,5.76
2023-04-09T21:02:43.199Z,5.78
2023-04-09T21:05:21.887Z,5.82
2023-04-09T21:07:52.784Z,5.85
2023-04-09T21:10:21.338Z,5.88
2023-04-09T21:12:49.687Z,5.91
2023-04-09T21:15:17.730Z,5.96
2023-04-09T21:17:45.662Z,5.99
2023-04-09T21:20:15.211Z,6.02
2023-04-09T21:22:42.983Z,6.06
2023-04-09T21:25:12.735Z,6.10
2023-04-09T21:27:42.948Z,6.14
2023-04-09T21:30:11.196Z,6.17
2023-04-09T21:32:38.954Z,6.21
2023-04-09T21:35:07.048Z,6.23
2023-04-09T21:37:37.575Z,6.26
2023-04-09T21:40:06.543Z,6.29
2023-04-09T21:42:34.720Z,6.31
2023-04-09T21:45:03.208Z,6.35
2023-04-09T21:47:32.059Z,6.38
2023-04-09T21:50:00.045Z,6.41
2023-04-09T21:52:28.324Z,6.44
2023-04-09T21:54:57.172Z,6.46
2023-04-09T21:57:24.919Z,6.49
2023-04-09T21:59:54.006Z,6.50
2023-04-09T22:02:22.284Z,6.52
2023-04-09T22:04:50.790Z,6.54
2023-04-09T22:07:18.688Z,6.55
2023-04-09T22:09:48.831Z,6.56
2023-04-09T22:12:16.621Z,6.56
2023-04-09T22:14:46.041Z,6.56
2023-04-09T22:17:13.849Z,6.57
2023-04-09T22:19:44.249Z,6.58
2023-04-09T22:22:13.641Z,6.58
2023-04-09T22:24:41.922Z,6.60
2023-04-09T22:27:13.084Z,6.62
2023-04-09T22:29:40.980Z,6.64
2023-04-09T22:32:09.483Z,6.64
2023-04-09T22:34:37.449Z,6.64
2023-04-09T22:37:05.185Z,6.66
2023-04-09T22:39:33.096Z,6.67
2023-04-09T22:42:01.875Z,6.67
2023-04-09T22:44:29.800Z,6.67
2023-04-09T22:46:57.717Z,6.69
2023-04-09T22:49:26.124Z,6.71
2023-04-09T22:51:54.890Z,6.73
2023-04-09T22:54:22.972Z,6.75
2023-04-09T22:56:50.894Z,6.76
2023-04-09T22:59:19.976Z,6.78
2023-04-09T23:01:49.960Z,6.80
2023-04-09T23:04:22.988Z,6.82
2023-04-09T23:06:51.267Z,6.84
2023-04-09T23:09:19.000Z,6.86
2023-04-09T23:11:46.857Z,6.88
2023-04-09T23:14:15.073Z,6.89
2023-04-09T23:16:43.767Z,6.90
2023-04-09T23:19:11.839Z,6.92
2023-04-09T23:21:39.587Z,6.93
2023-04-09T23:24:07.368Z,6.94
2023-04-09T23:26:35.038Z,6.95
2023-04-09T23:29:12.474Z,6.97
2023-04-09T23:31:41.152Z,6.98
2023-04-09T23:34:08.968Z,6.99
2023-04-09T23:36:36.681Z,7.00
2023-04-09T23:39:04.439Z,7.01
2023-04-09T23:41:32.591Z,7.02
2023-04-09T23:44:00.992Z,7.02
2023-04-09T23:46:28.783Z,7.02
2023-04-09T23:49:00.485Z,7.03
2023-04-09T23:51:28.352Z,7.04
2023-04-09T23:53:56.171Z,7.05
2023-04-09T23:56:25.230Z,7.05
2023-04-09T23:58:53.412Z,7.04
